createdAt,value
2019-02-21T00:01:57.545Z,17.60
2019-02-21T00:04:27.704Z,19.40
2019-02-21T00:06:58.112Z,20.87
2019-02-21T00:09:28.345Z,29.87
2019-02-21T00:11:58.634Z,25.93
2019-02-21T00:14:29.194Z,27.93
2019-02-21T00:17:00.624Z,36.17
2019-02-21T00:19:31.944Z,25.20
2019-02-21T00:22:01.712Z,22.50
2019-02-21T00:24:31.906Z,23.90
2019-02-21T00:27:03.673Z,16.53
2019-02-21T00:29:34.313Z,14.53
2019-02-21T00:32:04.747Z,21.70
2019-02-21T00:34:34.636Z,16.13
2019-02-21T00:37:05.872Z,23.17
2019-02-21T00:39:36.265Z,17.37
2019-02-21T00:42:06.626Z,18.60
2019-02-21T00:44:36.744Z,23.47
2019-02-21T00:47:09.112Z,13.77
2019-02-21T00:49:39.632Z,20.33
2019-02-21T00:52:09.986Z,23.30
2019-02-21T00:54:40.273Z,21.27
2019-02-21T00:57:10.633Z,21.90
2019-02-21T00:59:41.033Z,19.10
2019-02-21T01:02:11.345Z,15.40
2019-02-21T01:04:41.903Z,17.23
2019-02-21T01:07:12.517Z,16.77
2019-02-21T01:09:42.704Z,18.10
2019-02-21T01:12:13.195Z,22.53
2019-02-21T01:14:43.584Z,16.63
2019-02-21T01:17:14.105Z,15.40
2019-02-21T01:19:44.232Z,15.20
2019-02-21T01:22:14.625Z,16.17
2019-02-21T01:24:44.989Z,17.97
2019-02-21T01:27:15.384Z,20.40
2019-02-21T01:29:45.826Z,17.90
2019-02-21T01:32:15.923Z,17.30
2019-02-21T01:34:46.185Z,20.10
2019-02-21T01:37:16.506Z,20.07
2019-02-21T01:39:47.031Z,15.07
2019-02-21T01:42:17.505Z,17.80
2019-02-21T01:44:47.872Z,15.33
2019-02-21T01:47:18.186Z,18.30
2019-02-21T01:49:48.468Z,20.97
2019-02-21T01:52:19.032Z,21.50
2019-02-21T01:54:49.144Z,21.10
2019-02-21T01:57:19.344Z,21.57
2019-02-21T01:59:49.345Z,20.53
2019-02-21T02:02:19.405Z,18.70
2019-02-21T02:04:49.688Z,19.17
2019-02-21T02:07:19.881Z,14.67
2019-02-21T02:09:51.366Z,16.07
2019-02-21T02:12:21.728Z,23.23
2019-02-21T02:14:51.763Z,17.73
2019-02-21T02:17:21.838Z,19.87
2019-02-21T02:19:51.747Z,19.77
2019-02-21T02:22:21.911Z,24.80
2019-02-21T02:24:51.867Z,21.00
2019-02-21T02:27:22.067Z,22.23
2019-02-21T02:29:51.973Z,17.27
2019-02-21T02:32:22.151Z,18.60
2019-02-21T02:34:52.223Z,23.77
2019-02-21T02:37:22.759Z,24.63
2019-02-21T02:39:53.079Z,22.00
2019-02-21T02:42:23.115Z,23.57
2019-02-21T02:44:53.275Z,20.43
2019-02-21T02:47:23.757Z,19.60
2019-02-21T02:49:54.680Z,24.43
2019-02-21T02:52:24.776Z,23.73
2019-02-21T02:54:54.927Z,24.40
2019-02-21T02:57:25.167Z,24.43
2019-02-21T02:59:55.281Z,22.97
2019-02-21T03:02:25.228Z,23.80
2019-02-21T03:04:55.321Z,27.93
2019-02-21T03:07:25.419Z,22.40
2019-02-21T03:09:55.548Z,24.87
2019-02-21T03:12:25.795Z,27.97
2019-02-21T03:14:55.994Z,23.13
2019-02-21T03:17:27.334Z,25.07
2019-02-21T03:19:57.532Z,25.97
2019-02-21T03:22:27.710Z,23.07
2019-02-21T03:24:58.080Z,24.83
2019-02-21T03:27:28.174Z,24.73
2019-02-21T03:29:57.880Z,22.90
2019-02-21T03:32:27.921Z,24.73
2019-02-21T03:34:57.956Z,21.17
2019-02-21T03:37:28.157Z,23.10
2019-02-21T03:39:58.369Z,30.93
2019-02-21T03:42:28.527Z,21.20
2019-02-21T03:44:58.850Z,22.70
2019-02-21T03:47:28.883Z,23.00
2019-02-21T03:49:59.101Z,26.60
2019-02-21T03:52:29.260Z,28.17
2019-02-21T03:55:00.570Z,25.50
2019-02-21T03:57:30.850Z,29.00
2019-02-21T04:00:01.386Z,31.17
2019-02-21T04:02:31.851Z,29.30
2019-02-21T04:05:02.103Z,33.60
2019-02-21T04:07:32.074Z,30.93
2019-02-21T04:10:02.370Z,29.80
2019-02-21T04:12:32.758Z,30.63
2019-02-21T04:15:03.471Z,31.50
2019-02-21T04:17:34.881Z,33.73
2019-02-21T04:20:06.723Z,35.73
2019-02-21T04:22:36.858Z,33.37
2019-02-21T04:25:07.881Z,39.13
2019-02-21T04:27:37.992Z,37.87
2019-02-21T04:30:09.248Z,41.57
2019-02-21T04:32:39.759Z,43.17
2019-02-21T04:35:10.897Z,39.53
2019-02-21T04:37:40.790Z,41.80
2019-02-21T04:40:10.894Z,47.10
2019-02-21T04:42:41.042Z,44.73
2019-02-21T04:45:10.776Z,38.33
2019-02-21T04:47:40.805Z,45.40
2019-02-21T04:50:10.874Z,39.93
2019-02-21T04:52:41.115Z,49.33
2019-02-21T04:55:11.453Z,48.87
2019-02-21T04:57:41.743Z,43.83
2019-02-21T05:00:13.261Z,39.00
2019-02-21T05:02:43.267Z,44.77
2019-02-21T05:05:13.581Z,44.77
2019-02-21T05:07:43.683Z,51.30
2019-02-21T05:10:13.943Z,48.63
2019-02-21T05:12:44.121Z,51.03
2019-02-21T05:15:14.473Z,46.40
2019-02-21T05:17:44.539Z,49.10
2019-02-21T05:20:14.654Z,47.20
2019-02-21T05:22:45.012Z,48.87
2019-02-21T05:25:16.442Z,48.60
2019-02-21T05:27:47.562Z,53.37
2019-02-21T05:30:19.654Z,54.20
2019-02-21T05:32:50.816Z,54.83
2019-02-21T05:35:25.633Z,59.27
2019-02-21T05:38:07.693Z,61.00
2019-02-21T05:40:45.609Z,66.17
2019-02-21T05:43:23.294Z,64.80
2019-02-21T05:46:10.826Z,61.13
2019-02-21T05:48:45.268Z,53.93
2019-02-21T05:51:16.699Z,65.43
2019-02-21T05:53:51.140Z,57.77
2019-02-21T05:56:34.690Z,61.73
2019-02-21T05:59:22.894Z,69.37
2019-02-21T06:02:03.467Z,67.50
2019-02-21T06:04:53.431Z,62.73
2019-02-21T06:07:37.286Z,64.67
2019-02-21T06:10:12.004Z,68.13
2019-02-21T06:13:00.136Z,71.33
2019-02-21T06:15:37.941Z,76.80
2019-02-21T06:18:13.147Z,64.67
2019-02-21T06:20:44.780Z,70.50
2019-02-21T06:23:24.886Z,73.43
2019-02-21T06:25:59.276Z,77.37
2019-02-21T06:28:34.164Z,79.33
2019-02-21T06:31:06.405Z,85.47
2019-02-21T06:33:36.512Z,93.17
2019-02-21T06:36:06.536Z,91.43
2019-02-21T06:38:36.745Z,86.57
2019-02-21T06:41:06.781Z,91.83
2019-02-21T06:43:36.918Z,103.27
2019-02-21T06:46:06.796Z,97.00
2019-02-21T06:48:36.816Z,96.87
2019-02-21T06:51:06.438Z,103.93
2019-02-21T06:53:36.416Z,93.83
2019-02-21T06:56:06.466Z,97.43
2019-02-21T06:58:36.669Z,105.63
2019-02-21T07:01:06.563Z,85.60
2019-02-21T07:03:36.722Z,85.90
2019-02-21T07:06:06.699Z,90.80
2019-02-21T07:08:36.830Z,90.67
2019-02-21T07:11:08.512Z,85.20
2019-02-21T07:13:38.534Z,94.80
2019-02-21T07:16:08.616Z,93.30
2019-02-21T07:18:40.741Z,98.73
2019-02-21T07:21:10.422Z,106.20
2019-02-21T07:23:43.395Z,93.07
2019-02-21T07:26:11.969Z,100.53
2019-02-21T07:28:43.396Z,90.30
2019-02-21T07:31:13.793Z,95.60
2019-02-21T07:33:44.393Z,88.67
2019-02-21T07:36:14.456Z,77.47
2019-02-21T07:38:44.709Z,84.23
2019-02-21T07:41:18.545Z,83.40
2019-02-21T07:43:48.005Z,83.70
2019-02-21T07:46:18.256Z,77.97
2019-02-21T07:48:48.497Z,78.17
2019-02-21T07:51:18.575Z,77.60
2019-02-21T07:53:48.811Z,73.70
2019-02-21T07:56:18.927Z,65.30
2019-02-21T07:58:49.123Z,66.20
2019-02-21T08:01:19.018Z,68.80
2019-02-21T08:03:49.059Z,68.23
2019-02-21T08:06:20.132Z,71.20
2019-02-21T08:08:50.393Z,63.93
2019-02-21T08:11:20.735Z,69.20
2019-02-21T08:13:50.813Z,62.93
2019-02-21T08:16:20.868Z,74.35
2019-02-21T08:18:51.061Z,62.40
2019-02-21T08:21:21.311Z,68.67
2019-02-21T08:23:51.343Z,64.97
2019-02-21T08:26:22.378Z,56.50
2019-02-21T08:28:52.262Z,66.50
2019-02-21T08:31:22.379Z,62.53
2019-02-21T08:33:58.764Z,72.00
2019-02-21T08:36:28.675Z,75.30
2019-02-21T08:38:58.923Z,58.43
2019-02-21T08:41:28.883Z,54.70
2019-02-21T08:43:58.449Z,56.57
2019-02-21T08:46:28.400Z,53.60
2019-02-21T08:48:58.574Z,54.10
2019-02-21T08:51:28.619Z,56.73
2019-02-21T08:53:58.756Z,56.40
2019-02-21T08:56:30.260Z,52.47
2019-02-21T08:59:00.346Z,55.60
2019-02-21T09:01:30.495Z,54.07
2019-02-21T09:04:09.800Z,51.73
2019-02-21T09:06:32.134Z,51.23
2019-02-21T09:09:02.110Z,49.03
2019-02-21T09:11:33.988Z,52.93
2019-02-21T09:14:04.034Z,45.87
2019-02-21T09:16:34.027Z,56.90
2019-02-21T09:19:04.074Z,51.43
2019-02-21T09:21:34.117Z,47.83
2019-02-21T09:24:04.301Z,46.03
2019-02-21T09:26:34.785Z,51.90
2019-02-21T09:29:05.542Z,44.57
2019-02-21T09:31:35.893Z,47.53
2019-02-21T09:34:05.914Z,51.17
2019-02-21T09:36:36.071Z,49.30
2019-02-21T09:39:06.637Z,48.37
2019-02-21T09:41:37.189Z,48.97
2019-02-21T09:44:07.273Z,48.53
2019-02-21T09:46:37.433Z,52.13
2019-02-21T09:49:07.726Z,50.90
2019-02-21T09:51:37.956Z,52.53
2019-02-21T09:54:09.136Z,54.67
2019-02-21T09:56:39.655Z,52.70
2019-02-21T09:59:10.050Z,48.00
2019-02-21T10:01:40.364Z,44.60
2019-02-21T10:04:10.702Z,45.83
2019-02-21T10:06:40.903Z,45.30
2019-02-21T10:09:11.137Z,42.80
2019-02-21T10:11:41.828Z,51.77
2019-02-21T10:14:11.881Z,55.90
2019-02-21T10:16:41.958Z,58.23
2019-02-21T10:19:13.543Z,60.90
2019-02-21T10:21:43.760Z,55.33
2019-02-21T10:24:13.928Z,57.83
2019-02-21T10:26:44.209Z,55.23
2019-02-21T10:29:15.332Z,53.30
2019-02-21T10:31:45.910Z,54.53
2019-02-21T10:34:15.931Z,49.73
2019-02-21T10:36:45.607Z,57.47
2019-02-21T10:39:15.622Z,59.27
2019-02-21T10:41:45.600Z,56.47
2019-02-21T10:44:15.660Z,64.43
2019-02-21T10:46:45.804Z,60.07
2019-02-21T10:49:16.296Z,62.17
2019-02-21T10:51:46.622Z,65.23
2019-02-21T10:54:16.617Z,66.07
2019-02-21T10:56:46.800Z,74.57
2019-02-21T10:59:17.545Z,80.83
2019-02-21T11:01:47.865Z,81.43
2019-02-21T11:04:17.780Z,95.30
2019-02-21T11:06:47.869Z,100.80
2019-02-21T11:09:21.606Z,108.90
2019-02-21T11:11:51.810Z,108.80
2019-02-21T11:14:21.831Z,103.40
2019-02-21T11:16:52.201Z,101.50
2019-02-21T11:19:22.324Z,101.70
2019-02-21T11:21:52.590Z,101.37
2019-02-21T11:24:22.774Z,108.90
2019-02-21T11:26:52.932Z,102.73
2019-02-21T11:29:22.975Z,108.90
2019-02-21T11:31:53.224Z,108.53
2019-02-21T11:34:23.399Z,108.30
2019-02-21T11:36:53.590Z,111.50
2019-02-21T11:39:24.031Z,114.37
2019-02-21T11:41:53.643Z,104.53
2019-02-21T11:44:23.896Z,101.87
2019-02-21T11:46:54.131Z,89.53
2019-02-21T11:49:24.259Z,86.07
2019-02-21T11:51:54.311Z,82.27
2019-02-21T11:54:27.168Z,81.40
2019-02-21T11:56:57.459Z,78.27
2019-02-21T11:59:27.595Z,78.70
2019-02-21T12:01:57.603Z,75.10
2019-02-21T12:04:27.710Z,76.53
2019-02-21T12:06:58.703Z,81.60
2019-02-21T12:09:28.841Z,71.70
2019-02-21T12:11:59.110Z,75.90
2019-02-21T12:14:29.199Z,74.57
2019-02-21T12:16:59.381Z,78.43
2019-02-21T12:19:29.383Z,80.17
2019-02-21T12:21:59.570Z,74.03
2019-02-21T12:24:29.800Z,74.77
2019-02-21T12:27:00.049Z,70.37
2019-02-21T12:29:30.470Z,67.70
2019-02-21T12:32:00.741Z,62.60
2019-02-21T12:34:31.713Z,64.07
2019-02-21T12:37:01.992Z,60.93
2019-02-21T12:39:33.001Z,61.50
2019-02-21T12:42:03.183Z,58.97
2019-02-21T12:44:33.379Z,60.40
2019-02-21T12:47:03.501Z,57.97
2019-02-21T12:49:33.726Z,52.63
2019-02-21T12:52:04.917Z,49.00
2019-02-21T12:54:34.445Z,55.00
2019-02-21T12:57:04.412Z,49.87
2019-02-21T12:59:34.540Z,54.07
2019-02-21T13:02:04.644Z,49.50
2019-02-21T13:04:34.314Z,50.20
2019-02-21T13:07:04.375Z,47.00
2019-02-21T13:09:34.461Z,52.23
2019-02-21T13:12:04.591Z,50.20
2019-02-21T13:14:34.310Z,52.40
2019-02-21T13:17:04.331Z,51.63
2019-02-21T13:19:34.725Z,46.17
2019-02-21T13:22:04.956Z,53.13
2019-02-21T13:24:34.522Z,48.20
2019-02-21T13:27:04.585Z,52.00
2019-02-21T13:29:34.219Z,49.70
2019-02-21T13:32:04.605Z,47.53
2019-02-21T13:34:34.213Z,42.93
2019-02-21T13:37:04.417Z,44.07
2019-02-21T13:39:34.537Z,36.57
2019-02-21T13:42:04.880Z,34.67
2019-02-21T13:44:34.544Z,31.87
2019-02-21T13:47:04.690Z,35.10
2019-02-21T13:49:36.113Z,30.10
2019-02-21T13:52:05.891Z,29.80
2019-02-21T13:54:35.774Z,35.80
2019-02-21T13:57:06.445Z,32.17
2019-02-21T13:59:36.523Z,31.10
2019-02-21T14:02:07.035Z,31.87
2019-02-21T14:04:38.388Z,32.60
2019-02-21T14:07:08.728Z,39.03
2019-02-21T14:09:38.813Z,31.83
2019-02-21T14:12:09.040Z,36.30
2019-02-21T14:14:39.137Z,33.00
2019-02-21T14:17:09.275Z,36.27
2019-02-21T14:19:39.501Z,38.20
2019-02-21T14:22:09.684Z,39.60
2019-02-21T14:24:39.832Z,37.23
2019-02-21T14:27:10.075Z,37.23
2019-02-21T14:29:40.433Z,35.00
2019-02-21T14:32:10.934Z,37.13
2019-02-21T14:34:42.275Z,33.33
2019-02-21T14:37:12.367Z,37.73
2019-02-21T14:39:42.520Z,39.17
2019-02-21T14:42:12.704Z,34.03
2019-02-21T14:44:42.833Z,39.63
2019-02-21T14:47:12.846Z,33.60
2019-02-21T14:49:42.881Z,31.83
2019-02-21T14:52:13.952Z,32.40
2019-02-21T14:54:44.182Z,33.90
2019-02-21T14:57:15.380Z,33.90
2019-02-21T14:59:46.731Z,30.23
2019-02-21T15:02:16.720Z,44.77
2019-02-21T15:04:46.835Z,44.53
2019-02-21T15:07:16.965Z,41.20
2019-02-21T15:09:46.987Z,39.63
2019-02-21T15:12:17.012Z,31.20
2019-02-21T15:14:47.320Z,30.83
2019-02-21T15:17:18.588Z,34.77
2019-02-21T15:19:49.256Z,28.20
2019-02-21T15:22:19.489Z,33.57
2019-02-21T15:24:49.669Z,28.57
2019-02-21T15:27:19.990Z,33.73
2019-02-21T15:29:50.197Z,33.57
2019-02-21T15:32:20.271Z,33.60
2019-02-21T15:34:50.668Z,38.23
2019-02-21T15:37:20.567Z,37.67
2019-02-21T15:39:50.338Z,40.40
2019-02-21T15:42:20.358Z,51.37
2019-02-21T15:44:50.548Z,51.07
2019-02-21T15:47:20.727Z,54.77
2019-02-21T15:49:50.894Z,43.17
2019-02-21T15:52:22.666Z,49.73
2019-02-21T15:54:52.903Z,47.40
2019-02-21T15:57:23.170Z,46.90
2019-02-21T15:59:53.501Z,37.63
2019-02-21T16:02:23.811Z,37.13
2019-02-21T16:04:54.192Z,34.33
2019-02-21T16:07:24.306Z,34.70
2019-02-21T16:09:54.461Z,35.80
2019-02-21T16:12:24.736Z,32.37
2019-02-21T16:14:54.899Z,35.00
2019-02-21T16:17:24.576Z,36.93
2019-02-21T16:19:54.803Z,41.70
2019-02-21T16:22:26.347Z,38.90
2019-02-21T16:24:57.729Z,37.07
2019-02-21T16:27:27.946Z,42.53
2019-02-21T16:29:58.221Z,42.67
2019-02-21T16:32:28.771Z,45.97
2019-02-21T16:34:58.906Z,41.80
2019-02-21T16:37:29.098Z,43.03
2019-02-21T16:40:01.117Z,42.67
2019-02-21T16:42:31.393Z,42.53
2019-02-21T16:45:01.541Z,43.33
2019-02-21T16:47:33.277Z,41.47
2019-02-21T16:50:03.252Z,47.80
2019-02-21T16:52:36.776Z,50.13
2019-02-21T16:55:09.855Z,49.13
2019-02-21T16:57:40.255Z,56.23
2019-02-21T17:00:13.150Z,55.60
2019-02-21T17:02:43.192Z,55.90
2019-02-21T17:05:13.725Z,67.13
2019-02-21T17:07:44.171Z,56.20
2019-02-21T17:10:17.273Z,69.47
2019-02-21T17:12:47.536Z,59.93
2019-02-21T17:15:18.490Z,67.20
2019-02-21T17:17:48.570Z,72.00
2019-02-21T17:20:20.695Z,73.23
2019-02-21T17:22:52.473Z,65.00
2019-02-21T17:25:23.984Z,62.80
2019-02-21T17:27:57.999Z,75.77
2019-02-21T17:30:29.343Z,77.43
2019-02-21T17:33:00.682Z,78.33
2019-02-21T17:35:31.889Z,75.07
2019-02-21T17:38:02.678Z,83.33
2019-02-21T17:40:32.437Z,83.43
2019-02-21T17:43:02.997Z,85.53
2019-02-21T17:45:33.308Z,83.03
2019-02-21T17:48:04.730Z,89.10
2019-02-21T17:50:36.874Z,81.20
2019-02-21T17:53:08.809Z,84.23
2019-02-21T17:55:40.711Z,87.97
2019-02-21T17:58:10.648Z,80.53
2019-02-21T18:00:42.335Z,80.93
2019-02-21T18:03:17.105Z,86.73
2019-02-21T18:05:48.069Z,78.73
2019-02-21T18:08:19.819Z,75.77
2019-02-21T18:10:50.575Z,74.87
2019-02-21T18:13:20.384Z,78.90
2019-02-21T18:15:50.451Z,72.93
2019-02-21T18:18:20.519Z,74.20
2019-02-21T18:20:50.742Z,79.80
2019-02-21T18:23:20.694Z,95.57
2019-02-21T18:25:53.749Z,98.70
2019-02-21T18:28:23.766Z,101.03
2019-02-21T18:30:55.756Z,93.03
2019-02-21T18:33:26.666Z,96.07
2019-02-21T18:35:56.349Z,89.50
2019-02-21T18:38:26.476Z,77.57
2019-02-21T18:40:56.920Z,76.27
2019-02-21T18:43:27.102Z,66.07
2019-02-21T18:45:57.702Z,54.90
2019-02-21T18:48:28.204Z,52.20
2019-02-21T18:50:58.651Z,65.27
2019-02-21T18:53:28.919Z,56.40
2019-02-21T18:55:59.369Z,65.33
2019-02-21T18:58:30.063Z,74.53
2019-02-21T19:00:59.898Z,96.23
2019-02-21T19:03:31.359Z,96.40
2019-02-21T19:06:01.456Z,110.50
2019-02-21T19:08:31.475Z,112.33
2019-02-21T19:11:01.035Z,112.27
2019-02-21T19:13:30.779Z,109.73
2019-02-21T19:16:01.103Z,106.93
2019-02-21T19:18:30.813Z,117.40
2019-02-21T19:21:00.907Z,121.87
2019-02-21T19:23:31.070Z,92.33
2019-02-21T19:26:01.150Z,101.63
2019-02-21T19:28:31.932Z,92.33
2019-02-21T19:31:03.502Z,92.20
2019-02-21T19:33:33.674Z,62.83
2019-02-21T19:36:05.329Z,56.03
2019-02-21T19:38:35.030Z,57.17
2019-02-21T19:41:05.040Z,56.77
2019-02-21T19:43:34.574Z,63.10
2019-02-21T19:46:04.570Z,59.60
2019-02-21T19:48:34.561Z,48.97
2019-02-21T19:51:05.129Z,49.93
2019-02-21T19:53:35.339Z,59.20
2019-02-21T19:56:05.519Z,76.97
2019-02-21T19:58:36.606Z,61.60
2019-02-21T20:01:06.740Z,63.57
2019-02-21T20:03:40.853Z,69.97
2019-02-21T20:06:13.247Z,44.87
2019-02-21T20:08:48.725Z,44.77
2019-02-21T20:11:18.773Z,51.53
2019-02-21T20:13:49.040Z,46.40
2019-02-21T20:16:18.618Z,43.27
2019-02-21T20:18:49.085Z,52.27
2019-02-21T20:21:19.223Z,49.67
2019-02-21T20:23:52.113Z,41.27
2019-02-21T20:26:24.783Z,51.90
2019-02-21T20:28:56.114Z,75.13
2019-02-21T20:31:26.669Z,58.53
2019-02-21T20:33:57.705Z,50.57
2019-02-21T20:36:30.248Z,75.80
2019-02-21T20:39:04.196Z,77.53
2019-02-21T20:41:35.675Z,50.20
2019-02-21T20:44:10.196Z,52.83
2019-02-21T20:46:40.231Z,51.80
2019-02-21T20:49:10.350Z,43.50
2019-02-21T20:51:40.879Z,43.30
2019-02-21T20:54:12.883Z,40.43
2019-02-21T20:56:48.084Z,41.77
2019-02-21T20:59:22.958Z,40.13
2019-02-21T21:01:53.379Z,36.60
2019-02-21T21:04:23.690Z,27.07
2019-02-21T21:06:54.722Z,29.60
2019-02-21T21:09:25.247Z,29.67
2019-02-21T21:11:55.353Z,21.63
2019-02-21T21:14:26.832Z,22.43
2019-02-21T21:16:58.028Z,22.17
2019-02-21T21:19:29.633Z,27.17
2019-02-21T21:22:01.212Z,20.67
2019-02-21T21:24:32.504Z,21.47
2019-02-21T21:27:02.740Z,17.37
2019-02-21T21:29:33.134Z,17.70
2019-02-21T21:32:05.885Z,18.50
2019-02-21T21:34:35.887Z,20.63
2019-02-21T21:37:05.992Z,18.87
2019-02-21T21:39:35.923Z,23.60
2019-02-21T21:42:08.255Z,30.97
2019-02-21T21:44:38.171Z,40.63
2019-02-21T21:47:08.306Z,39.83
2019-02-21T21:49:38.638Z,24.20
2019-02-21T21:52:08.759Z,30.37
2019-02-21T21:54:39.019Z,24.17
2019-02-21T21:57:09.191Z,24.37
2019-02-21T21:59:39.479Z,21.57
2019-02-21T22:02:09.842Z,20.73
2019-02-21T22:04:41.071Z,25.30
2019-02-21T22:07:10.722Z,27.13
2019-02-21T22:09:40.666Z,25.33
2019-02-21T22:12:11.966Z,28.70
2019-02-21T22:14:42.151Z,22.50
2019-02-21T22:17:13.713Z,23.63
2019-02-21T22:19:44.179Z,20.20
2019-02-21T22:22:14.581Z,21.17
2019-02-21T22:24:44.924Z,25.10
2019-02-21T22:27:15.045Z,23.13
2019-02-21T22:29:45.369Z,24.40
2019-02-21T22:32:15.713Z,22.17
2019-02-21T22:34:45.861Z,19.57
2019-02-21T22:37:16.194Z,19.40
2019-02-21T22:39:46.372Z,15.17
2019-02-21T22:42:16.654Z,24.27
2019-02-21T22:44:46.635Z,20.20
2019-02-21T22:47:17.871Z,15.70
2019-02-21T22:49:48.192Z,14.20
2019-02-21T22:52:18.042Z,17.10
2019-02-21T22:54:48.416Z,12.50
2019-02-21T22:57:18.664Z,19.57
2019-02-21T22:59:48.963Z,17.37
2019-02-21T23:02:19.860Z,29.17
2019-02-21T23:04:53.039Z,19.87
2019-02-21T23:07:26.108Z,12.60
2019-02-21T23:09:56.255Z,19.30
2019-02-21T23:12:27.542Z,19.23
2019-02-21T23:14:59.154Z,13.87
2019-02-21T23:17:29.484Z,11.60
2019-02-21T23:19:59.695Z,16.57
2019-02-21T23:22:29.623Z,17.87
2019-02-21T23:24:59.784Z,12.63
2019-02-21T23:27:29.728Z,22.70
2019-02-21T23:30:00.293Z,17.13
2019-02-21T23:32:31.632Z,15.37
2019-02-21T23:35:01.829Z,17.23
2019-02-21T23:37:32.046Z,20.00
2019-02-21T23:40:02.195Z,17.33
2019-02-21T23:42:32.769Z,15.20
2019-02-21T23:45:03.148Z,10.00
2019-02-21T23:47:33.333Z,13.17
2019-02-21T23:50:03.555Z,10.23
2019-02-21T23:52:33.480Z,9.57
2019-02-21T23:55:05.621Z,10.37
2019-02-21T23:57:35.897Z,13.60
